Big Bear Station Historical Data
Daily Summary for February 13, 2017 Units:  English    Metric   Both
Next Day »
Daily Weekly Monthly Yearly Custom
  High: Low: Average:
Temperature: 50.0 °F 28.0 °F 37.1 °F
Dew Point: 36.8 °F 26.1 °F 30.8 °F
Humidity: 94% 54% 79%
Wind Speed: 4.2mph 0.0mph 0.8mph
Wind Gust: -999.0mph - -
Wind- - SSW
Pressure: 30.18 in 30.13 in -
Precipitation: 0.00 in    
Historical Graphs
 
 
Tabular Data for February 13, 2017
Time Temperature Dew Point Pressure Wind Wind Speed Wind Gust Humidity Rainfall Rate (Hourly)
00:11 35.2 °F 28.4 °F 30.16 in WNW 2.2 mph -999.0 mph 76% 0 in
00:26 35.1 °F 28.6 °F 30.15 in Calm   -999.0 mph 77% 0 in
00:41 35.1 °F 28.9 °F 30.15 in Calm   -999.0 mph 78% 0 in
00:56 35.1 °F 28.3 °F 30.15 in Calm   -999.0 mph 76% 0 in
01:12 35.2 °F 28.7 °F 30.15 in Calm   -999.0 mph 77% 0 in
01:27 35.4 °F 27.6 °F 30.15 in ESE 1.1 mph -999.0 mph 73% 0 in
01:43 35.2 °F 27.7 °F 30.15 in Calm   -999.0 mph 74% 0 in
01:58 34.3 °F 28.2 °F 30.15 in Calm   -999.0 mph 78% 0 in
02:13 33.6 °F 27.5 °F 30.15 in Calm   -999.0 mph 78% 0 in
02:28 32.7 °F 27.2 °F 30.14 in Calm   -999.0 mph 80% 0 in
02:43 32.2 °F 26.7 °F 30.14 in WNW 1.7 mph -999.0 mph 80% 0 in
02:59 32.0 °F 26.8 °F 30.14 in Calm   -999.0 mph 81% 0 in
03:14 31.3 °F 26.4 °F 30.14 in Calm   -999.0 mph 82% 0 in
03:29 30.7 °F 26.4 °F 30.13 in SSE 2.2 mph -999.0 mph 84% 0 in
03:44 30.6 °F 26.3 °F 30.13 in South 2.2 mph -999.0 mph 84% 0 in
03:59 30.4 °F 26.4 °F 30.13 in SSE 2.2 mph -999.0 mph 85% 0 in
04:30 30.4 °F 26.4 °F 30.14 in SSE 1.7 mph -999.0 mph 85% 0 in
04:45 29.8 °F 26.4 °F 30.14 in SSE 1.7 mph -999.0 mph 87% 0 in
05:00 30.0 °F 26.6 °F 30.13 in South 2.2 mph -999.0 mph 87% 0 in
05:16 29.7 °F 26.6 °F 30.13 in Calm   -999.0 mph 88% 0 in
05:31 29.3 °F 26.5 °F 30.13 in Calm   -999.0 mph 89% 0 in
05:46 28.8 °F 26.5 °F 30.14 in Calm   -999.0 mph 91% 0 in
06:01 28.8 °F 26.5 °F 30.15 in SSE 2.7 mph -999.0 mph 91% 0 in
06:16 28.4 °F 26.1 °F 30.15 in Calm   -999.0 mph 91% 0 in
06:32 28.4 °F 26.4 °F 30.15 in Calm   -999.0 mph 92% 0 in
06:47 28.2 °F 26.2 °F 30.16 in Calm   -999.0 mph 92% 0 in
07:02 28.0 °F 26.2 °F 30.16 in Calm   -999.0 mph 93% 0 in
07:17 28.2 °F 26.7 °F 30.16 in Calm   -999.0 mph 94% 0 in
07:32 29.5 °F 27.7 °F 30.16 in Calm   -999.0 mph 93% 0 in
07:48 30.9 °F 29.4 °F 30.16 in Calm   -999.0 mph 94% 0 in
08:03 31.8 °F 30.3 °F 30.16 in NNW 1.1 mph -999.0 mph 94% 0 in
08:18 32.5 °F 30.2 °F 30.17 in Calm   -999.0 mph 91% 0 in
08:33 34.9 °F 31.4 °F 30.17 in South 2.7 mph -999.0 mph 87% 0 in
08:48 35.6 °F 31.8 °F 30.17 in Calm   -999.0 mph 86% 0 in
09:04 37.6 °F 32.9 °F 30.17 in Calm   -999.0 mph 83% 0 in
09:19 39.2 °F 33.6 °F 30.17 in NNW 1.7 mph -999.0 mph 80% 0 in
09:34 40.5 °F 34.5 °F 30.17 in Calm   -999.0 mph 79% 0 in
09:49 41.5 °F 34.8 °F 30.18 in West 1.1 mph -999.0 mph 77% 0 in
10:05 42.4 °F 35.4 °F 30.18 in Calm   -999.0 mph 76% 0 in
10:20 44.6 °F 36.5 °F 30.18 in SSW 2.7 mph -999.0 mph 73% 0 in
10:35 45.1 °F 36.3 °F 30.18 in NE 1.7 mph -999.0 mph 71% 0 in
10:51 46.0 °F 36.8 °F 30.18 in NNE 1.7 mph -999.0 mph 70% 0 in
11:06 46.9 °F 36.5 °F 30.18 in Calm   -999.0 mph 67% 0 in
11:21 47.7 °F 36.5 °F 30.17 in ESE 2.7 mph -999.0 mph 65% 0 in
11:36 48.2 °F 36.6 °F 30.17 in NNE 2.2 mph -999.0 mph 64% 0 in
11:52 49.8 °F 36.0 °F 30.17 in SE 2.2 mph -999.0 mph 59% 0 in
12:07 49.6 °F 35.9 °F 30.16 in West 1.7 mph -999.0 mph 59% 0 in
12:22 49.5 °F 35.3 °F 30.16 in East 1.1 mph -999.0 mph 58% 0 in
12:37 50.0 °F 35.8 °F 30.16 in NE 2.2 mph -999.0 mph 58% 0 in
12:52 49.3 °F 34.7 °F 30.15 in ENE 1.1 mph -999.0 mph 57% 0 in
13:08 49.1 °F 35.0 °F 30.15 in Calm   -999.0 mph 58% 0 in
13:23 48.9 °F 34.3 °F 30.15 in NNE 2.7 mph -999.0 mph 57% 0 in
13:38 49.5 °F 33.5 °F 30.14 in NNW 2.2 mph -999.0 mph 54% 0 in
13:53 48.7 °F 35.0 °F 30.14 in WNW 3.2 mph -999.0 mph 59% 0 in
14:09 48.6 °F 34.1 °F 30.14 in NW 3.7 mph -999.0 mph 57% 0 in
14:24 49.5 °F 34.4 °F 30.14 in NW 4.2 mph -999.0 mph 56% 0 in
14:39 48.2 °F 34.5 °F 30.14 in NNW 1.7 mph -999.0 mph 59% 0 in
14:54 47.7 °F 34.5 °F 30.14 in Calm   -999.0 mph 60% 0 in
15:10 46.0 °F 34.1 °F 30.14 in NNW 2.7 mph -999.0 mph 63% 0 in
15:25 45.7 °F 34.2 °F 30.14 in NW 2.7 mph -999.0 mph 64% 0 in
15:41 44.8 °F 34.1 °F 30.15 in NW 2.2 mph -999.0 mph 66% 0 in
15:56 44.2 °F 33.9 °F 30.14 in NNW 2.2 mph -999.0 mph 67% 0 in
16:12 43.9 °F 34.4 °F 30.14 in NW 1.7 mph -999.0 mph 69% 0 in
16:27 43.3 °F 34.2 °F 30.15 in NW 2.2 mph -999.0 mph 70% 0 in
16:42 42.6 °F 33.9 °F 30.15 in Calm   -999.0 mph 71% 0 in
16:58 41.4 °F 33.4 °F 30.15 in Calm   -999.0 mph 73% 0 in
17:13 40.6 °F 33.0 °F 30.15 in Calm   -999.0 mph 74% 0 in
17:29 40.1 °F 33.1 °F 30.15 in Calm   -999.0 mph 76% 0 in
17:44 38.8 °F 32.5 °F 30.16 in Calm   -999.0 mph 78% 0 in
17:59 37.8 °F 31.9 °F 30.16 in Calm   -999.0 mph 79% 0 in
18:14 37.0 °F 31.4 °F 30.16 in Calm   -999.0 mph 80% 0 in
18:29 36.1 °F 31.1 °F 30.16 in Calm   -999.0 mph 82% 0 in
18:45 35.4 °F 30.8 °F 30.16 in Calm   -999.0 mph 83% 0 in
19:00 34.7 °F 30.4 °F 30.16 in Calm   -999.0 mph 84% 0 in
19:15 34.2 °F 30.2 °F 30.16 in Calm   -999.0 mph 85% 0 in
19:30 34.0 °F 30.3 °F 30.16 in Calm   -999.0 mph 86% 0 in
19:45 33.4 °F 29.9 °F 30.17 in Calm   -999.0 mph 87% 0 in
20:01 33.1 °F 29.9 °F 30.16 in Calm   -999.0 mph 88% 0 in
20:16 32.7 °F 29.5 °F 30.17 in Calm   -999.0 mph 88% 0 in
20:31 32.4 °F 29.2 °F 30.17 in Calm   -999.0 mph 88% 0 in
20:46 32.2 °F 29.0 °F 30.17 in Calm   -999.0 mph 88% 0 in
21:02 31.6 °F 28.7 °F 30.17 in Calm   -999.0 mph 89% 0 in
21:17 31.1 °F 28.2 °F 30.17 in Calm   -999.0 mph 89% 0 in
21:32 30.9 °F 28.3 °F 30.17 in Calm   -999.0 mph 90% 0 in
21:48 30.9 °F 28.9 °F 30.17 in Calm   -999.0 mph 92% 0 in
22:04 31.1 °F 29.0 °F 30.17 in Calm   -999.0 mph 92% 0 in
22:19 31.1 °F 29.0 °F 30.17 in Calm   -999.0 mph 92% 0 in
22:34 30.9 °F 29.1 °F 30.17 in Calm   -999.0 mph 93% 0 in
22:49 31.5 °F 29.4 °F 30.18 in Calm   -999.0 mph 92% 0 in
23:04 31.1 °F 29.0 °F 30.17 in Calm   -999.0 mph 92% 0 in
23:20 30.7 °F 28.9 °F 30.18 in Calm   -999.0 mph 93% 0 in
23:35 30.6 °F 28.8 °F 30.17 in Calm   -999.0 mph 93% 0 in
23:50 30.0 °F 28.2 °F 30.17 in Calm   -999.0 mph 93% 0 in
Big Bear CA Weather